createdAt,value
2022-08-14T00:02:01.555Z,59.45
2022-08-14T00:05:07.875Z,60.26
2022-08-14T00:08:14.524Z,59.61
2022-08-14T00:11:17.157Z,60.28
2022-08-14T00:14:19.329Z,60.70
2022-08-14T00:17:22.183Z,60.73
2022-08-14T00:20:30.189Z,61.05
2022-08-14T00:23:33.457Z,61.76
2022-08-14T00:26:35.667Z,62.27
2022-08-14T00:29:40.582Z,62.90
2022-08-14T00:32:52.194Z,63.06
2022-08-14T00:36:34.960Z,62.80
2022-08-14T00:39:20.758Z,62.44
2022-08-14T00:42:55.034Z,62.50
2022-08-14T00:45:52.552Z,62.72
2022-08-14T00:48:55.308Z,63.01
2022-08-14T00:52:00.467Z,62.94
2022-08-14T00:55:06.609Z,62.91
2022-08-14T00:58:32.795Z,63.59
2022-08-14T01:01:37.066Z,63.95
2022-08-14T01:04:53.698Z,65.02
2022-08-14T01:07:59.739Z,65.35
2022-08-14T01:11:03.107Z,64.86
2022-08-14T01:14:27.533Z,64.93
2022-08-14T01:17:50.018Z,64.71
2022-08-14T01:21:06.358Z,65.03
2022-08-14T01:24:10.958Z,65.76
2022-08-14T01:27:22.393Z,65.33
2022-08-14T01:30:27.582Z,65.34
2022-08-14T01:33:30.472Z,65.35
2022-08-14T01:36:54.084Z,65.24
2022-08-14T01:39:56.469Z,65.02
2022-08-14T01:42:58.693Z,65.44
2022-08-14T01:46:06.865Z,65.13
2022-08-14T01:49:13.202Z,65.15
2022-08-14T01:52:33.705Z,64.93
2022-08-14T01:55:38.562Z,65.41
2022-08-14T01:58:46.612Z,65.36
2022-08-14T02:02:10.117Z,65.11
2022-08-14T02:05:35.579Z,65.32
2022-08-14T02:08:52.476Z,65.54
2022-08-14T02:11:56.352Z,65.99
2022-08-14T02:15:01.581Z,66.37
2022-08-14T02:18:04.445Z,66.40
2022-08-14T02:21:06.699Z,66.35
2022-08-14T02:24:39.263Z,66.64
2022-08-14T02:28:25.152Z,66.74
2022-08-14T02:30:54.783Z,67.39
2022-08-14T02:33:56.905Z,67.74
2022-08-14T02:37:09.239Z,67.90
2022-08-14T02:40:14.169Z,67.81
2022-08-14T02:43:17.402Z,67.72
2022-08-14T02:46:27.106Z,68.14
2022-08-14T02:49:35.841Z,68.22
2022-08-14T02:53:07.399Z,67.96
2022-08-14T02:56:29.532Z,68.42
2022-08-14T02:59:28.835Z,68.59
2022-08-14T03:02:49.009Z,69.42
2022-08-14T03:05:58.196Z,69.60
2022-08-14T03:09:01.201Z,69.50
2022-08-14T03:12:04.919Z,69.28
2022-08-14T03:15:14.393Z,69.44
2022-08-14T03:18:22.143Z,69.07
2022-08-14T03:21:37.120Z,69.77
2022-08-14T03:24:39.308Z,69.50
2022-08-14T03:27:48.596Z,70.17
2022-08-14T03:31:01.652Z,70.11
2022-08-14T03:34:04.636Z,69.54
2022-08-14T03:37:37.510Z,69.63
2022-08-14T03:40:35.284Z,69.91
2022-08-14T03:43:37.442Z,69.76
2022-08-14T03:46:54.341Z,70.34
2022-08-14T03:49:58.319Z,70.17
2022-08-14T03:53:02.524Z,71.80
2022-08-14T03:56:06.223Z,70.97
2022-08-14T03:59:17.893Z,70.89
2022-08-14T04:02:32.416Z,70.49
2022-08-14T04:05:43.380Z,70.10
2022-08-14T04:08:51.693Z,71.05
2022-08-14T04:11:56.039Z,69.97
2022-08-14T04:14:58.492Z,69.87
2022-08-14T04:18:08.493Z,69.92
2022-08-14T04:21:16.151Z,69.65
2022-08-14T04:24:18.912Z,69.64
2022-08-14T04:27:23.205Z,69.42
2022-08-14T04:30:33.216Z,69.46
2022-08-14T04:33:36.369Z,69.64
2022-08-14T04:36:58.917Z,69.20
2022-08-14T04:40:20.055Z,68.94
2022-08-14T04:43:39.822Z,68.20
2022-08-14T04:47:02.015Z,67.95
2022-08-14T04:50:05.549Z,67.33
2022-08-14T04:53:07.805Z,66.95
2022-08-14T04:56:30.974Z,64.78
2022-08-14T04:59:37.105Z,65.00
2022-08-14T05:02:45.846Z,64.53
2022-08-14T05:05:54.513Z,63.90
2022-08-14T05:09:00.366Z,63.92
2022-08-14T05:13:11.003Z,63.36
2022-08-14T05:15:29.445Z,62.81
2022-08-14T05:19:17.972Z,62.72
2022-08-14T05:22:16.855Z,61.70
2022-08-14T05:25:21.265Z,60.18
2022-08-14T05:28:27.120Z,57.95
2022-08-14T05:31:39.379Z,54.29
2022-08-14T05:34:45.757Z,53.67
2022-08-14T05:37:49.367Z,52.19
2022-08-14T05:40:51.999Z,53.17
2022-08-14T05:43:55.082Z,51.38
2022-08-14T05:46:58.584Z,49.19
2022-08-14T05:50:01.787Z,48.42
2022-08-14T05:53:04.292Z,44.61
2022-08-14T05:56:06.701Z,38.30
2022-08-14T05:59:11.092Z,34.66
2022-08-14T06:02:13.228Z,30.45
2022-08-14T06:05:16.873Z,27.89
2022-08-14T06:08:36.101Z,27.13
2022-08-14T06:11:43.451Z,24.45
2022-08-14T06:14:45.576Z,24.10
2022-08-14T06:17:55.869Z,24.30
2022-08-14T06:21:06.205Z,23.91
2022-08-14T06:24:18.078Z,24.00
2022-08-14T06:27:21.247Z,23.12
2022-08-14T06:30:30.492Z,20.59
2022-08-14T06:35:10.329Z,19.38
2022-08-14T06:37:11.544Z,18.47
2022-08-14T06:40:28.014Z,17.81
2022-08-14T06:43:32.509Z,17.31
2022-08-14T06:46:37.222Z,16.99
2022-08-14T06:49:45.001Z,17.82
2022-08-14T06:52:50.854Z,20.23
2022-08-14T06:56:00.526Z,20.32
2022-08-14T06:59:05.242Z,17.60
2022-08-14T07:02:28.949Z,17.43
2022-08-14T07:05:55.497Z,18.60
2022-08-14T07:08:58.631Z,19.43
2022-08-14T07:12:01.045Z,18.56
2022-08-14T07:15:06.222Z,17.67
2022-08-14T07:18:09.750Z,17.25
2022-08-14T07:21:12.236Z,18.34
2022-08-14T07:24:26.160Z,17.46
2022-08-14T07:27:36.125Z,17.57
2022-08-14T07:30:51.097Z,21.09
2022-08-14T07:33:54.467Z,27.01
2022-08-14T07:37:00.641Z,29.55
2022-08-14T07:40:05.147Z,34.15
2022-08-14T07:43:14.412Z,35.31
2022-08-14T07:46:21.200Z,37.25
2022-08-14T07:49:31.142Z,37.81
2022-08-14T07:52:34.242Z,39.34
2022-08-14T07:55:36.812Z,39.41
2022-08-14T07:58:51.372Z,41.48
2022-08-14T08:01:57.369Z,40.98
2022-08-14T08:05:02.565Z,41.31
2022-08-14T08:08:08.306Z,41.58
2022-08-14T08:11:34.583Z,42.07
2022-08-14T08:14:56.493Z,44.05
2022-08-14T08:18:05.006Z,44.15
2022-08-14T08:21:08.249Z,45.58
2022-08-14T08:24:11.184Z,45.67
2022-08-14T08:27:19.856Z,45.69
2022-08-14T08:30:24.460Z,45.16
2022-08-14T08:33:31.759Z,45.44
2022-08-14T08:36:42.749Z,44.73
2022-08-14T08:40:01.913Z,45.19
2022-08-14T08:43:18.346Z,45.55
2022-08-14T08:46:24.068Z,45.01
2022-08-14T08:49:48.187Z,45.26
2022-08-14T08:52:55.524Z,44.91
2022-08-14T08:55:58.413Z,44.88
2022-08-14T08:59:00.915Z,45.12
2022-08-14T09:02:10.425Z,44.75
2022-08-14T09:05:12.839Z,45.48
2022-08-14T09:08:31.781Z,45.02
2022-08-14T09:11:35.045Z,43.89
2022-08-14T09:14:39.992Z,44.25
2022-08-14T09:17:43.156Z,43.62
2022-08-14T09:20:49.409Z,43.17
2022-08-14T09:24:29.165Z,41.74
2022-08-14T09:27:22.602Z,41.17
2022-08-14T09:30:33.020Z,40.22
2022-08-14T09:33:57.768Z,40.82
2022-08-14T09:37:11.740Z,39.73
2022-08-14T09:40:26.446Z,39.10
2022-08-14T09:43:55.127Z,37.54
2022-08-14T09:46:59.842Z,36.78
2022-08-14T09:50:01.976Z,33.11
2022-08-14T09:53:17.807Z,32.61
2022-08-14T09:56:30.154Z,28.62
2022-08-14T09:59:42.009Z,27.92
2022-08-14T10:03:05.251Z,26.24
2022-08-14T10:06:14.445Z,25.02
2022-08-14T10:09:17.686Z,25.98
2022-08-14T10:12:28.997Z,27.72
2022-08-14T10:15:46.386Z,25.99
2022-08-14T10:18:53.298Z,24.64
2022-08-14T10:23:14.917Z,23.94
2022-08-14T10:25:40.342Z,21.19
2022-08-14T10:29:19.050Z,22.89
2022-08-14T10:32:17.945Z,22.54
2022-08-14T10:35:22.982Z,21.38
2022-08-14T10:38:27.778Z,20.01
2022-08-14T10:41:48.529Z,19.07
2022-08-14T10:44:56.568Z,19.72
2022-08-14T10:48:08.561Z,20.04
2022-08-14T10:51:16.716Z,21.80
2022-08-14T10:54:35.754Z,18.83
2022-08-14T10:57:52.498Z,20.90
2022-08-14T11:00:59.195Z,19.51
2022-08-14T11:04:02.578Z,19.93
2022-08-14T11:07:16.812Z,19.78
2022-08-14T11:10:27.896Z,20.00
2022-08-14T11:13:31.444Z,17.80
2022-08-14T11:16:35.943Z,19.67
2022-08-14T11:19:40.626Z,19.39
2022-08-14T11:22:55.964Z,18.52
2022-08-14T11:26:01.579Z,18.66
2022-08-14T11:29:06.297Z,18.09
2022-08-14T11:32:10.836Z,18.75
2022-08-14T11:35:16.275Z,19.29
2022-08-14T11:38:19.996Z,19.85
2022-08-14T11:41:22.666Z,18.23
2022-08-14T11:44:45.805Z,18.79
2022-08-14T11:48:13.358Z,17.37
2022-08-14T11:51:30.349Z,16.99
2022-08-14T11:54:35.485Z,18.20
2022-08-14T11:57:38.138Z,18.27
2022-08-14T12:00:53.760Z,19.76
2022-08-14T12:04:21.866Z,17.84
2022-08-14T12:07:30.474Z,18.18
2022-08-14T12:10:40.960Z,16.99
2022-08-14T12:13:45.967Z,16.26
2022-08-14T12:17:12.846Z,16.30
2022-08-14T12:20:15.733Z,15.55
2022-08-14T12:23:32.807Z,17.78
2022-08-14T12:26:40.618Z,17.58
2022-08-14T12:29:53.946Z,17.36
2022-08-14T12:32:58.897Z,16.87
2022-08-14T12:36:05.720Z,17.33
2022-08-14T12:39:20.315Z,17.58
2022-08-14T12:42:34.876Z,18.21
2022-08-14T12:45:40.260Z,17.16
2022-08-14T12:48:46.376Z,17.87
2022-08-14T12:51:58.383Z,16.80
2022-08-14T12:55:06.415Z,16.76
2022-08-14T12:58:28.651Z,18.41
2022-08-14T13:01:59.875Z,17.01
2022-08-14T13:04:58.088Z,16.96
2022-08-14T13:08:05.038Z,17.30
2022-08-14T13:11:14.568Z,17.75
2022-08-14T13:14:30.059Z,17.22
2022-08-14T13:17:41.913Z,18.42
2022-08-14T13:20:51.507Z,21.33
2022-08-14T13:24:03.140Z,21.54
2022-08-14T13:27:12.363Z,20.87
2022-08-14T13:30:23.413Z,20.74
2022-08-14T13:33:27.303Z,21.33
2022-08-14T13:36:54.737Z,21.49
2022-08-14T13:39:57.090Z,21.62
2022-08-14T13:42:59.896Z,22.58
2022-08-14T13:46:03.902Z,22.97
2022-08-14T13:49:10.586Z,22.95
2022-08-14T13:52:51.423Z,23.67
2022-08-14T13:55:52.090Z,23.07
2022-08-14T13:59:01.296Z,24.24
2022-08-14T14:02:06.339Z,25.07
2022-08-14T14:05:14.699Z,25.27
2022-08-14T14:08:43.707Z,25.31
2022-08-14T14:11:43.886Z,25.64
2022-08-14T14:14:51.783Z,24.65
2022-08-14T14:17:59.544Z,24.48
2022-08-14T14:21:02.499Z,24.79
2022-08-14T14:24:06.096Z,24.59
2022-08-14T14:27:38.928Z,23.91
2022-08-14T14:30:53.496Z,23.76
2022-08-14T14:34:12.708Z,24.66
2022-08-14T14:37:26.748Z,24.28
2022-08-14T14:40:52.556Z,24.20
2022-08-14T14:43:58.910Z,23.95
2022-08-14T14:47:01.928Z,24.21
2022-08-14T14:50:04.998Z,24.56
2022-08-14T14:53:12.809Z,24.21
2022-08-14T14:56:50.244Z,24.68
2022-08-14T14:59:38.881Z,25.02
2022-08-14T15:02:42.726Z,24.99
2022-08-14T15:05:44.666Z,25.70
2022-08-14T15:08:56.864Z,25.46
2022-08-14T15:12:16.110Z,25.18
2022-08-14T15:15:25.172Z,25.44
2022-08-14T15:18:40.224Z,26.69
2022-08-14T15:21:49.348Z,26.99
2022-08-14T15:24:52.904Z,26.90
2022-08-14T15:27:55.495Z,26.26
2022-08-14T15:30:58.876Z,26.55
2022-08-14T15:34:43.100Z,26.72
2022-08-14T15:37:35.283Z,26.81
2022-08-14T15:40:51.471Z,26.96
2022-08-14T15:43:59.965Z,27.86
2022-08-14T15:47:07.006Z,27.52
2022-08-14T15:50:09.746Z,27.33
2022-08-14T15:53:12.389Z,26.99
2022-08-14T15:56:32.854Z,27.74
2022-08-14T15:59:58.386Z,27.29
2022-08-14T16:03:01.664Z,28.11
2022-08-14T16:06:06.193Z,27.46
2022-08-14T16:09:13.418Z,27.87
2022-08-14T16:12:16.688Z,28.08
2022-08-14T16:15:22.408Z,28.44
2022-08-14T16:18:27.242Z,27.91
2022-08-14T16:21:29.622Z,28.25
2022-08-14T16:24:59.920Z,28.81
2022-08-14T16:27:59.731Z,28.42
2022-08-14T16:31:03.018Z,28.59
2022-08-14T16:34:45.432Z,28.53
2022-08-14T16:37:30.915Z,28.86
2022-08-14T16:40:42.957Z,28.79
2022-08-14T16:43:47.158Z,29.46
2022-08-14T16:46:57.134Z,30.35
2022-08-14T16:50:04.714Z,29.87
2022-08-14T16:53:09.614Z,29.48
2022-08-14T16:56:17.169Z,30.32
2022-08-14T16:59:30.657Z,29.67
2022-08-14T17:03:00.909Z,29.60
2022-08-14T17:06:03.094Z,29.18
2022-08-14T17:09:31.473Z,29.90
2022-08-14T17:12:35.371Z,31.10
2022-08-14T17:15:37.888Z,31.12
2022-08-14T17:19:00.114Z,31.53
2022-08-14T17:22:04.015Z,32.11
2022-08-14T17:25:07.009Z,32.48
2022-08-14T17:28:49.819Z,32.93
2022-08-14T17:31:57.816Z,33.63
2022-08-14T17:35:01.777Z,34.13
2022-08-14T17:38:10.126Z,33.19
2022-08-14T17:41:43.870Z,33.08
2022-08-14T17:44:48.108Z,33.57
2022-08-14T17:47:51.415Z,34.06
2022-08-14T17:51:00.564Z,34.72
2022-08-14T17:54:04.895Z,34.88
2022-08-14T17:57:14.028Z,35.05
2022-08-14T18:00:17.737Z,35.47
2022-08-14T18:03:49.995Z,35.73
2022-08-14T18:07:06.190Z,35.98
2022-08-14T18:10:52.363Z,36.67
2022-08-14T18:13:50.745Z,37.21
2022-08-14T18:16:55.855Z,37.71
2022-08-14T18:20:00.257Z,38.47
2022-08-14T18:23:06.178Z,38.59
2022-08-14T18:26:37.229Z,39.14
2022-08-14T18:29:39.692Z,39.46
2022-08-14T18:32:55.292Z,39.71
2022-08-14T18:36:48.633Z,40.30
2022-08-14T18:39:29.677Z,40.77
2022-08-14T18:42:32.223Z,41.38
2022-08-14T18:45:41.234Z,41.55
2022-08-14T18:48:50.656Z,41.73
2022-08-14T18:52:13.144Z,41.75
2022-08-14T18:55:21.435Z,41.90
2022-08-14T18:58:27.615Z,42.02
2022-08-14T19:01:34.322Z,42.42
2022-08-14T19:04:37.374Z,43.12
2022-08-14T19:07:48.403Z,43.60
2022-08-14T19:11:03.927Z,43.86
2022-08-14T19:14:13.057Z,44.23
2022-08-14T19:18:14.488Z,44.75
2022-08-14T19:21:22.711Z,45.52
2022-08-14T19:24:44.246Z,45.56
2022-08-14T19:28:31.699Z,45.04
2022-08-14T19:31:42.162Z,44.89
2022-08-14T19:34:52.211Z,44.63
2022-08-14T19:37:56.931Z,44.29
2022-08-14T19:41:01.624Z,44.92
2022-08-14T19:44:19.500Z,45.50
2022-08-14T19:47:41.124Z,46.42
2022-08-14T19:50:46.801Z,47.20
2022-08-14T19:53:56.443Z,47.48
2022-08-14T19:56:58.840Z,47.90
2022-08-14T20:00:28.047Z,48.12
2022-08-14T20:03:59.896Z,48.76
2022-08-14T20:07:04.382Z,49.98
2022-08-14T20:11:12.618Z,50.52
2022-08-14T20:13:36.267Z,49.94
2022-08-14T20:16:44.629Z,49.99
2022-08-14T20:19:49.095Z,50.09
2022-08-14T20:22:55.605Z,50.07
2022-08-14T20:25:58.486Z,50.22
2022-08-14T20:29:05.347Z,50.48
2022-08-14T20:32:14.758Z,50.60
2022-08-14T20:35:26.827Z,51.18
2022-08-14T20:38:38.123Z,51.90
2022-08-14T20:41:48.988Z,51.97
2022-08-14T20:45:18.825Z,52.29
2022-08-14T20:48:52.673Z,52.19
2022-08-14T20:52:00.292Z,52.78
2022-08-14T20:55:29.129Z,52.83
2022-08-14T20:58:43.378Z,52.75
2022-08-14T21:02:28.418Z,52.13
2022-08-14T21:05:33.826Z,52.58
2022-08-14T21:08:37.202Z,52.72
2022-08-14T21:11:42.612Z,53.04
2022-08-14T21:14:51.862Z,52.99
2022-08-14T21:17:56.262Z,53.30
2022-08-14T21:21:06.947Z,53.78
2022-08-14T21:24:38.684Z,53.83
2022-08-14T21:27:37.148Z,54.14
2022-08-14T21:30:46.999Z,54.25
2022-08-14T21:33:56.282Z,54.22
2022-08-14T21:37:06.405Z,54.29
2022-08-14T21:40:18.611Z,54.11
2022-08-14T21:43:35.833Z,53.16
2022-08-14T21:46:46.729Z,53.18
2022-08-14T21:49:48.894Z,53.43
2022-08-14T21:53:01.041Z,53.84
2022-08-14T21:56:12.033Z,53.95
2022-08-14T21:59:18.383Z,54.37
2022-08-14T22:02:32.783Z,54.48
2022-08-14T22:05:37.729Z,54.99
2022-08-14T22:08:40.583Z,54.78
2022-08-14T22:11:49.063Z,54.97
2022-08-14T22:15:00.399Z,55.20
2022-08-14T22:18:06.593Z,55.14
2022-08-14T22:21:16.707Z,55.34
2022-08-14T22:24:38.387Z,55.09
2022-08-14T22:27:56.311Z,54.74
2022-08-14T22:31:10.476Z,55.70
2022-08-14T22:34:15.019Z,55.32
2022-08-14T22:37:17.646Z,55.84
2022-08-14T22:40:53.710Z,54.87
2022-08-14T22:43:43.259Z,55.40
2022-08-14T22:46:46.292Z,55.38
2022-08-14T22:50:30.726Z,55.12
2022-08-14T22:53:12.427Z,54.95
2022-08-14T22:56:20.290Z,55.14
2022-08-14T22:59:36.442Z,54.57
2022-08-14T23:02:40.869Z,54.58
2022-08-14T23:05:52.777Z,54.78
2022-08-14T23:08:58.700Z,54.86
2022-08-14T23:12:04.674Z,55.34
2022-08-14T23:15:29.957Z,55.44
2022-08-14T23:18:32.605Z,56.33
2022-08-14T23:21:34.993Z,56.87
2022-08-14T23:24:42.685Z,57.32
2022-08-14T23:28:03.216Z,57.81
2022-08-14T23:31:09.778Z,58.53
2022-08-14T23:34:20.744Z,57.90
2022-08-14T23:37:26.886Z,57.83
2022-08-14T23:40:30.802Z,57.26
2022-08-14T23:43:33.086Z,57.37
2022-08-14T23:46:35.968Z,56.76
2022-08-14T23:50:00.968Z,56.85
2022-08-14T23:53:27.935Z,55.50
2022-08-14T23:56:37.548Z,55.56
2022-08-14T23:59:54.211Z,55.62
